Time;durP1;ratioP1;P1;durP2;ratioP2;P2;SDS_P1;SDS_P2;PMS_P1;PMS_P2;Temp;Humidity;BMP_temperature;BMP_pressure;BME280_temperature;BME280_humidity;BME280_pressure;Samples;Min_cycle;Max_cycle;Signal;HPM_P1;HPM_P2
2021/06/17 00:00:36;;;;;;;8.52;6.40;;;22.90;65.50;;;;;;5026465;28;20035;-59
2021/06/17 00:03:03;;;;;;;9.55;7.47;;;22.90;65.70;;;;;;5025031;28;20040;-59
2021/06/17 00:05:32;;;;;;;9.43;6.97;;;22.90;65.80;;;;;;5026487;28;20486;-58
2021/06/17 00:07:59;;;;;;;7.70;6.95;;;22.90;65.40;;;;;;5026147;28;20018;-59
2021/06/17 00:10:28;;;;;;;9.88;6.88;;;22.80;65.70;;;;;;5025871;28;20109;-59
2021/06/17 00:12:55;;;;;;;7.85;6.85;;;22.80;66.20;;;;;;5026625;28;20031;-59
2021/06/17 00:15:22;;;;;;;6.80;6.10;;;22.80;65.90;;;;;;5026765;28;20039;-59
2021/06/17 00:17:48;;;;;;;7.78;6.28;;;22.80;65.80;;;;;;5029253;22;20045;-81
2021/06/17 00:20:15;;;;;;;9.57;7.38;;;22.80;66.50;;;;;;5007834;28;20540;-80
2021/06/17 00:22:41;;;;;;;10.25;6.68;;;22.80;66.30;;;;;;5009870;28;20033;-80
2021/06/17 00:25:07;;;;;;;9.32;6.65;;;22.80;66.00;;;;;;5009237;28;20087;-80
2021/06/17 00:27:33;;;;;;;6.95;6.22;;;22.80;66.10;;;;;;5009585;28;20556;-80
2021/06/17 00:29:58;;;;;;;7.82;6.38;;;22.80;66.20;;;;;;5006015;28;20034;-80
2021/06/17 00:32:24;;;;;;;7.38;6.05;;;22.80;65.90;;;;;;5010004;28;20030;-80
2021/06/17 00:34:49;;;;;;;10.80;7.07;;;22.80;66.20;;;;;;5008318;28;20030;-81
2021/06/17 00:37:16;;;;;;;7.18;6.47;;;22.80;65.90;;;;;;5009464;28;20025;-80
2021/06/17 00:39:42;;;;;;;9.35;6.97;;;22.80;66.40;;;;;;5007278;28;20106;-81
2021/06/17 00:42:08;;;;;;;8.48;7.35;;;22.70;65.80;;;;;;5008707;28;20562;-81
2021/06/17 00:44:33;;;;;;;9.85;6.95;;;22.70;66.20;;;;;;5009258;28;20104;-80
2021/06/17 00:47:00;;;;;;;9.48;7.47;;;22.60;66.70;;;;;;5008272;28;20026;-81
2021/06/17 00:49:26;;;;;;;13.57;7.30;;;22.60;66.80;;;;;;5009274;28;20386;-81
2021/06/17 00:51:52;;;;;;;10.73;6.65;;;22.50;66.60;;;;;;5009452;28;20558;-81
2021/06/17 00:54:33;;;;;;;10.75;6.45;;;22.50;66.80;;;;;;5008021;28;20109;-81
2021/06/17 00:57:01;;;;;;;8.85;8.05;;;22.50;66.70;;;;;;5006930;28;20017;-81
2021/06/17 00:59:26;;;;;;;10.95;7.85;;;22.50;66.90;;;;;;5008628;28;20485;-81
2021/06/17 01:01:52;;;;;;;9.98;8.52;;;22.40;66.70;;;;;;5009965;28;20041;-81
2021/06/17 01:04:17;;;;;;;12.05;8.38;;;22.40;67.20;;;;;;5009704;28;20108;-81
2021/06/17 01:06:43;;;;;;;12.90;8.98;;;22.30;67.30;;;;;;5009803;28;20370;-81
2021/06/17 01:09:17;;;;;;;11.40;8.35;;;22.20;67.70;;;;;;5011390;28;20033;-81
2021/06/17 01:12:13;;;;;;;11.40;8.85;;;22.20;67.70;;;;;;5013878;28;20130;-81
2021/06/17 01:14:51;;;;;;;12.18;9.18;;;22.10;67.90;;;;;;4988522;28;20627;-82
2021/06/17 01:17:18;;;;;;;10.90;9.07;;;22.10;68.00;;;;;;5013321;28;20037;-81
2021/06/17 01:20:04;;;;;;;11.05;9.80;;;22.00;68.20;;;;;;5011750;28;20029;-82
2021/06/17 01:22:54;;;;;;;10.25;8.55;;;22.00;68.20;;;;;;5013321;28;20050;-82
2021/06/17 01:25:39;;;;;;;12.20;9.48;;;22.00;68.30;;;;;;5013723;28;20059;-82
2021/06/17 01:28:11;;;;;;;11.40;9.18;;;22.00;68.50;;;;;;5011373;28;20093;-81
2021/06/17 01:30:55;;;;;;;12.80;9.77;;;22.00;68.60;;;;;;5011692;28;20500;-81
2021/06/17 01:33:24;;;;;;;12.07;9.00;;;22.00;68.40;;;;;;5012605;28;20068;-81
2021/06/17 01:35:50;;;;;;;12.50;9.93;;;22.00;68.50;;;;;;5013581;28;20024;-82
2021/06/17 01:38:23;;;;;;;13.18;9.13;;;22.00;68.30;;;;;;5000818;28;20048;-82
2021/06/17 01:40:50;;;;;;;10.30;8.10;;;22.00;69.00;;;;;;5008296;28;20022;-82
2021/06/17 01:43:17;;;;;;;11.13;9.43;;;21.90;68.70;;;;;;5013512;28;20026;-82
2021/06/17 01:45:45;;;;;;;10.10;9.07;;;21.90;68.40;;;;;;5012006;28;20022;-81
2021/06/17 01:48:12;;;;;;;12.15;9.30;;;21.90;68.80;;;;;;5008551;28;20502;-81
2021/06/17 01:50:37;;;;;;;9.85;8.95;;;21.90;68.40;;;;;;5012928;28;20034;-82
2021/06/17 01:53:04;;;;;;;9.68;8.77;;;21.90;68.80;;;;;;5012943;28;20117;-82
2021/06/17 01:55:32;;;;;;;9.57;8.20;;;21.90;68.60;;;;;;5013114;28;20032;-81
2021/06/17 01:58:05;;;;;;;10.00;9.00;;;21.90;68.40;;;;;;5010708;28;20022;-82
2021/06/17 02:00:32;;;;;;;12.60;9.48;;;21.90;68.80;;;;;;5011233;28;20429;-81
2021/06/17 02:03:01;;;;;;;10.60;8.77;;;21.90;68.70;;;;;;5011041;28;20030;-81
2021/06/17 02:05:27;;;;;;;9.95;8.32;;;22.00;68.60;;;;;;5012125;28;20033;-81
2021/06/17 02:07:53;;;;;;;19.70;10.48;;;22.00;68.80;;;;;;5010674;28;20040;-81
2021/06/17 02:10:20;;;;;;;20.73;10.98;;;22.00;68.60;;;;;;5011766;28;20055;-81
2021/06/17 02:12:47;;;;;;;11.07;9.98;;;22.00;69.10;;;;;;5012597;28;20029;-82
2021/06/17 02:15:14;;;;;;;11.13;9.95;;;21.90;69.00;;;;;;5011471;28;20057;-82
2021/06/17 02:17:43;;;;;;;12.15;9.77;;;21.90;68.90;;;;;;5010407;28;20034;-81
2021/06/17 02:20:09;;;;;;;12.40;9.82;;;21.90;69.00;;;;;;5007606;28;20026;-82
2021/06/17 02:22:40;;;;;;;14.82;10.23;;;21.80;69.30;;;;;;5010786;28;20088;-82
2021/06/17 02:25:06;;;;;;;14.07;9.68;;;21.80;69.70;;;;;;5010654;28;20060;-82
2021/06/17 02:27:33;;;;;;;13.10;9.50;;;21.80;69.20;;;;;;5011013;28;20129;-82
2021/06/17 02:30:05;;;;;;;13.57;9.90;;;21.80;69.80;;;;;;5010385;28;20401;-81
2021/06/17 02:32:32;;;;;;;10.63;9.63;;;21.80;69.50;;;;;;5001837;28;20156;-81
2021/06/17 02:34:59;;;;;;;13.48;10.50;;;21.70;69.50;;;;;;5011192;28;20033;-81
2021/06/17 02:37:25;;;;;;;13.10;10.35;;;21.70;69.60;;;;;;5007019;28;20103;-81
2021/06/17 02:39:52;;;;;;;11.27;9.38;;;21.70;69.50;;;;;;5010610;28;20033;-81
2021/06/17 02:42:21;;;;;;;12.70;8.27;;;21.70;69.60;;;;;;5011237;28;20029;-81
2021/06/17 02:44:49;;;;;;;10.23;9.20;;;21.60;69.90;;;;;;5011682;28;20030;-81
2021/06/17 02:47:15;;;;;;;12.65;11.15;;;21.60;70.10;;;;;;5011253;28;20405;-80
2021/06/17 02:49:42;;;;;;;12.48;11.27;;;21.60;70.50;;;;;;5009814;28;20040;-81
2021/06/17 02:52:08;;;;;;;11.68;10.57;;;21.60;70.60;;;;;;5010915;28;20361;-82
2021/06/17 02:54:34;;;;;;;13.23;10.02;;;21.50;70.70;;;;;;5009832;28;20624;-81
2021/06/17 02:57:23;;;;;;;13.13;10.25;;;21.50;70.80;;;;;;5010312;28;20030;-81
2021/06/17 03:00:21;;;;;;;12.68;10.30;;;21.50;71.80;;;;;;5010244;28;20033;-81
2021/06/17 03:02:57;;;;;;;11.20;9.30;;;21.50;71.00;;;;;;5008269;28;20103;-81
2021/06/17 03:05:25;;;;;;;17.52;11.23;;;21.50;71.20;;;;;;5010407;28;20026;-81
2021/06/17 03:07:56;;;;;;;14.88;10.07;;;21.50;71.00;;;;;;5009268;28;20141;-81
2021/06/17 03:10:23;;;;;;;10.88;9.82;;;21.50;71.10;;;;;;5007165;28;20025;-81
2021/06/17 03:12:49;;;;;;;12.27;10.82;;;21.50;71.10;;;;;;5010911;28;20481;-81
2021/06/17 03:15:15;;;;;;;13.40;10.52;;;21.50;71.30;;;;;;5010671;28;20558;-81
2021/06/17 03:17:45;;;;;;;13.77;10.93;;;21.50;71.00;;;;;;5009572;28;20034;-81
2021/06/17 03:20:11;;;;;;;13.45;10.48;;;21.60;71.00;;;;;;5009526;28;20037;-82
2021/06/17 03:22:44;;;;;;;11.00;9.82;;;21.50;71.50;;;;;;5008825;28;20078;-81
2021/06/17 03:25:14;;;;;;;16.95;11.20;;;21.50;71.40;;;;;;5008536;28;20029;-82
2021/06/17 03:27:41;;;;;;;13.63;11.05;;;21.50;71.30;;;;;;5010631;28;20037;-81
2021/06/17 03:30:07;;;;;;;11.20;9.43;;;21.50;71.80;;;;;;5007759;28;20042;-81
2021/06/17 03:32:37;;;;;;;13.88;9.77;;;21.50;71.90;;;;;;5010130;28;20022;-81
2021/06/17 03:35:04;;;;;;;17.88;10.93;;;21.50;71.60;;;;;;5009595;28;20022;-81
2021/06/17 03:37:30;;;;;;;12.82;10.52;;;21.60;71.90;;;;;;5010339;28;20062;-81
2021/06/17 03:39:58;;;;;;;13.23;10.07;;;21.60;71.70;;;;;;5009372;28;20037;-81
2021/06/17 03:42:25;;;;;;;14.90;9.68;;;21.80;71.60;;;;;;5008464;28;20034;-81
2021/06/17 03:44:52;;;;;;;10.55;9.13;;;22.00;71.20;;;;;;5009107;28;20026;-81
2021/06/17 03:47:20;;;;;;;10.32;9.18;;;22.30;71.10;;;;;;5010080;28;20030;-82
2021/06/17 03:49:47;;;;;;;13.05;10.10;;;22.60;70.50;;;;;;5007321;28;20034;-81
2021/06/17 03:52:15;;;;;;;10.05;8.95;;;22.80;70.20;;;;;;5009491;28;20493;-82
2021/06/17 03:54:43;;;;;;;18.40;11.30;;;23.20;69.70;;;;;;5009663;28;20481;-82
2021/06/17 03:57:09;;;;;;;10.98;8.95;;;23.40;68.90;;;;;;5009680;28;20513;-82
2021/06/17 03:59:41;;;;;;;9.65;8.75;;;23.70;68.30;;;;;;5005728;28;20026;-82
2021/06/17 04:02:07;;;;;;;8.48;7.50;;;24.00;67.50;;;;;;5009103;28;20021;-80
2021/06/17 04:04:33;;;;;;;10.15;9.10;;;24.20;67.30;;;;;;5009650;28;20029;-81
2021/06/17 04:07:00;;;;;;;14.98;10.25;;;24.50;66.50;;;;;;5009495;28;20069;-81
2021/06/17 04:09:32;;;;;;;14.40;9.20;;;24.70;65.70;;;;;;5007782;28;20022;-81
2021/06/17 04:12:03;;;;;;;15.35;10.25;;;24.90;64.90;;;;;;5009914;28;20030;-81
2021/06/17 04:14:30;;;;;;;16.65;11.05;;;25.10;64.80;;;;;;5007618;28;20026;-82
2021/06/17 04:16:57;;;;;;;13.23;10.35;;;25.30;64.60;;;;;;5003037;28;20022;-81
2021/06/17 04:19:27;;;;;;;13.02;10.73;;;25.50;63.20;;;;;;4998559;28;20057;-81
2021/06/17 04:21:56;;;;;;;13.93;9.73;;;25.50;62.80;;;;;;5005129;28;20485;-81
2021/06/17 04:24:24;;;;;;;11.05;9.70;;;25.60;63.30;;;;;;4999225;28;20040;-82
2021/06/17 04:26:52;;;;;;;16.52;10.05;;;25.90;62.80;;;;;;5003308;28;20026;-80
2021/06/17 04:29:19;;;;;;;13.25;10.98;;;26.10;62.60;;;;;;5005096;28;20030;-82
2021/06/17 04:31:47;;;;;;;12.63;10.20;;;26.40;61.80;;;;;;5007795;28;20169;-79
2021/06/17 04:34:13;;;;;;;18.67;10.57;;;26.50;60.90;;;;;;5001355;28;20029;-80
2021/06/17 04:36:39;;;;;;;14.20;10.93;;;26.60;60.70;;;;;;5008296;28;20048;-77
2021/06/17 04:39:05;;;;;;;13.77;9.90;;;26.70;60.50;;;;;;5004968;28;20501;-79
2021/06/17 04:41:31;;;;;;;12.38;11.20;;;26.80;60.40;;;;;;5008226;28;20037;-79
2021/06/17 04:44:00;;;;;;;10.85;9.13;;;27.00;59.70;;;;;;5006626;28;20421;-79
2021/06/17 04:46:27;;;;;;;12.90;10.75;;;27.10;59.60;;;;;;5002894;28;20034;-79
2021/06/17 04:48:54;;;;;;;11.93;10.50;;;27.20;59.60;;;;;;5006436;28;20029;-78
2021/06/17 04:51:20;;;;;;;10.27;9.32;;;27.40;58.70;;;;;;5003443;28;20542;-76
2021/06/17 04:53:45;;;;;;;14.90;11.68;;;27.60;59.10;;;;;;5007285;28;20034;-81
2021/06/17 04:56:13;;;;;;;13.25;11.95;;;27.80;58.40;;;;;;5007051;28;20021;-80
2021/06/17 04:58:39;;;;;;;11.80;10.75;;;27.80;57.90;;;;;;5001134;28;20030;-71
2021/06/17 05:01:05;;;;;;;11.98;10.13;;;27.90;58.10;;;;;;4998138;28;20030;-70
2021/06/17 05:03:31;;;;;;;13.07;11.13;;;28.10;58.20;;;;;;5004474;28;20040;-70
2021/06/17 05:05:59;;;;;;;14.52;10.55;;;28.20;57.60;;;;;;5005861;28;20072;-70
2021/06/17 05:10:59;;;;;;;14.43;11.23;;;28.20;57.00;;;;;;5007354;28;20092;-70
2021/06/17 05:13:31;;;;;;;12.75;9.85;;;28.20;57.30;;;;;;5006845;28;20053;-69
2021/06/17 05:16:01;;;;;;;12.13;10.90;;;28.30;57.40;;;;;;5007374;28;20026;-69
2021/06/17 05:18:28;;;;;;;14.70;10.90;;;28.50;57.20;;;;;;5005422;28;20037;-70
2021/06/17 05:20:55;;;;;;;11.80;10.15;;;28.70;57.20;;;;;;5003699;28;20392;-70
2021/06/17 05:23:22;;;;;;;13.95;10.40;;;28.90;56.40;;;;;;5014636;28;20362;-69
2021/06/17 05:25:53;;;;;;;13.13;11.77;;;28.90;55.90;;;;;;5008348;28;20094;-69
2021/06/17 05:28:21;;;;;;;15.98;12.02;;;28.90;56.00;;;;;;5006160;28;20034;-70
2021/06/17 05:30:48;;;;;;;12.82;11.10;;;28.80;55.80;;;;;;5008605;28;20022;-70
2021/06/17 05:33:13;;;;;;;19.77;11.20;;;28.80;56.20;;;;;;5009141;28;20101;-70
2021/06/17 05:35:39;;;;;;;13.32;11.90;;;28.90;56.60;;;;;;5007465;28;20109;-70
2021/06/17 05:38:05;;;;;;;18.60;15.95;;;29.00;56.90;;;;;;5005035;28;20515;-70
2021/06/17 05:40:30;;;;;;;20.13;14.07;;;29.00;56.20;;;;;;5007833;28;20363;-70
2021/06/17 05:42:56;;;;;;;17.10;13.10;;;28.90;55.60;;;;;;5008866;28;20037;-69
2021/06/17 05:45:22;;;;;;;14.38;12.50;;;28.60;56.00;;;;;;5008359;28;20022;-70
2021/06/17 05:47:48;;;;;;;18.10;12.35;;;28.50;56.50;;;;;;5006983;28;20033;-69
2021/06/17 05:50:14;;;;;;;17.52;11.27;;;28.50;57.40;;;;;;5003194;28;21194;-69
2021/06/17 05:52:40;;;;;;;33.55;12.02;;;28.60;57.70;;;;;;5005977;28;20048;-69
2021/06/17 05:55:06;;;;;;;15.85;10.15;;;28.60;57.90;;;;;;5012121;28;20025;-70
2021/06/17 05:57:32;;;;;;;12.00;10.27;;;28.60;58.00;;;;;;5011319;28;20028;-70
2021/06/17 05:59:57;;;;;;;11.90;10.40;;;28.50;57.30;;;;;;5011135;28;20113;-70
2021/06/17 06:02:26;;;;;;;12.75;10.70;;;28.20;57.70;;;;;;5011129;28;20025;-70
2021/06/17 06:04:52;;;;;;;14.32;10.70;;;28.00;57.70;;;;;;5012005;28;20030;-69
2021/06/17 06:07:18;;;;;;;11.45;10.20;;;27.80;58.10;;;;;;5011152;28;20058;-69
2021/06/17 06:09:44;;;;;;;11.57;10.43;;;27.60;58.50;;;;;;5008147;28;20029;-70
2021/06/17 06:12:10;;;;;;;14.95;10.85;;;27.50;59.20;;;;;;5011797;28;20359;-69
2021/06/17 06:14:36;;;;;;;10.85;9.75;;;27.50;59.60;;;;;;5011395;28;20029;-70
2021/06/17 06:17:03;;;;;;;16.08;10.38;;;27.50;60.00;;;;;;5011273;28;20022;-72
2021/06/17 06:19:30;;;;;;;11.40;9.93;;;27.50;60.00;;;;;;5010365;28;20038;-72
2021/06/17 06:21:56;;;;;;;12.30;10.43;;;27.50;59.80;;;;;;5011578;28;20026;-72
2021/06/17 06:24:21;;;;;;;14.18;10.80;;;27.50;60.00;;;;;;5010980;28;20033;-72
2021/06/17 06:26:47;;;;;;;13.27;10.32;;;27.40;59.90;;;;;;5009344;28;20080;-72
2021/06/17 06:29:12;;;;;;;13.30;10.93;;;27.20;60.70;;;;;;5010830;28;20495;-72
2021/06/17 06:31:38;;;;;;;10.55;9.10;;;27.20;61.00;;;;;;5011512;28;20492;-72
2021/06/17 06:34:04;;;;;;;16.55;12.23;;;27.40;61.20;;;;;;5011700;28;20018;-72
2021/06/17 06:36:30;;;;;;;25.70;14.70;;;27.60;61.20;;;;;;5011268;28;20493;-72
2021/06/17 06:38:55;;;;;;;27.55;13.40;;;27.70;61.10;;;;;;5010518;28;20053;-72
2021/06/17 06:41:21;;;;;;;42.17;13.23;;;27.90;60.90;;;;;;5011355;28;20112;-72
2021/06/17 06:43:46;;;;;;;29.42;12.48;;;28.10;60.20;;;;;;5008973;28;20440;-72
2021/06/17 06:46:12;;;;;;;61.17;15.82;;;28.20;60.40;;;;;;5011168;28;20014;-72
2021/06/17 06:48:37;;;;;;;62.00;14.38;;;28.30;60.90;;;;;;5009166;28;20485;-72
2021/06/17 06:51:03;;;;;;;24.58;14.68;;;28.30;60.30;;;;;;5011290;28;20076;-72
2021/06/17 06:53:28;;;;;;;31.35;13.48;;;28.30;60.30;;;;;;5010748;28;20025;-72
2021/06/17 06:55:54;;;;;;;20.20;11.10;;;28.20;60.60;;;;;;5011506;28;20400;-72
2021/06/17 06:58:19;;;;;;;16.88;11.27;;;28.30;60.40;;;;;;5006816;28;20030;-72
2021/06/17 07:00:45;;;;;;;38.38;13.90;;;28.30;60.40;;;;;;5009386;28;20456;-72
2021/06/17 07:03:11;;;;;;;35.47;15.40;;;28.20;61.10;;;;;;5010664;28;20037;-72
2021/06/17 07:05:37;;;;;;;16.05;13.23;;;28.30;60.90;;;;;;5009860;28;20026;-72
2021/06/17 07:08:09;;;;;;;14.35;11.60;;;28.50;60.50;;;;;;5007230;28;20037;-72
2021/06/17 07:10:35;;;;;;;13.90;9.70;;;28.60;60.40;;;;;;5010733;28;20068;-72
2021/06/17 07:13:00;;;;;;;11.73;9.88;;;28.70;60.40;;;;;;5010519;28;20140;-72
2021/06/17 07:15:25;;;;;;;11.68;10.43;;;28.70;60.20;;;;;;5008619;28;20029;-72
2021/06/17 07:17:51;;;;;;;15.27;10.85;;;28.90;60.00;;;;;;5017418;28;20026;-72
2021/06/17 07:20:16;;;;;;;11.90;9.80;;;29.10;59.90;;;;;;5005677;28;20033;-72
2021/06/17 07:22:42;;;;;;;11.70;9.35;;;29.10;59.70;;;;;;5009866;28;20029;-72
2021/06/17 07:25:08;;;;;;;36.10;11.35;;;29.20;60.10;;;;;;5010798;28;20026;-72
2021/06/17 07:27:34;;;;;;;28.80;11.20;;;29.30;59.90;;;;;;5009441;28;20088;-72
2021/06/17 07:29:59;;;;;;;15.50;9.57;;;29.40;59.90;;;;;;5009075;28;20487;-72
2021/06/17 07:32:25;;;;;;;12.68;10.45;;;29.50;59.70;;;;;;5009566;28;20037;-72
2021/06/17 07:34:50;;;;;;;12.07;9.95;;;29.50;59.60;;;;;;5008954;28;20061;-72
2021/06/17 07:37:16;;;;;;;10.07;8.35;;;29.40;59.40;;;;;;5010067;28;20053;-72
2021/06/17 07:39:42;;;;;;;10.98;9.23;;;29.30;59.70;;;;;;5009455;28;20485;-72
2021/06/17 07:42:09;;;;;;;10.07;9.00;;;29.30;60.40;;;;;;5008513;28;20504;-72
2021/06/17 07:44:35;;;;;;;11.95;9.95;;;29.50;60.40;;;;;;5009597;28;20030;-72
2021/06/17 07:47:00;;;;;;;9.30;8.40;;;29.80;60.20;;;;;;5010119;28;20382;-70
2021/06/17 07:49:26;;;;;;;15.60;8.60;;;30.00;59.40;;;;;;5007243;28;20496;-70
2021/06/17 07:51:51;;;;;;;13.32;9.23;;;30.00;59.30;;;;;;5010086;28;20041;-70
2021/06/17 07:54:18;;;;;;;12.90;9.00;;;30.00;59.20;;;;;;5006653;28;20075;-70
2021/06/17 07:56:45;;;;;;;11.43;8.57;;;30.10;59.20;;;;;;5008860;28;20026;-70
2021/06/17 07:59:11;;;;;;;10.13;8.13;;;30.20;59.10;;;;;;5008645;28;20022;-70
2021/06/17 08:01:36;;;;;;;9.15;7.93;;;30.20;58.90;;;;;;5008557;28;20036;-70
2021/06/17 08:04:07;;;;;;;23.00;10.43;;;30.30;59.00;;;;;;5010011;28;20076;-71
2021/06/17 08:06:33;;;;;;;8.95;8.05;;;30.50;58.90;;;;;;5010099;28;20100;-71
2021/06/17 08:09:00;;;;;;;10.55;9.18;;;30.50;58.80;;;;;;5005078;28;20477;-70
2021/06/17 08:11:26;;;;;;;10.18;7.85;;;30.50;58.30;;;;;;5009601;28;20026;-70
2021/06/17 08:13:52;;;;;;;8.73;7.80;;;30.40;58.70;;;;;;5009500;28;20033;-70
2021/06/17 08:16:17;;;;;;;15.23;8.55;;;30.30;58.70;;;;;;5008160;28;20032;-71
2021/06/17 08:18:43;;;;;;;8.75;7.95;;;30.30;59.00;;;;;;5007419;28;20037;-71
2021/06/17 08:21:08;;;;;;;9.25;8.35;;;30.50;59.00;;;;;;5010076;28;20428;-71
2021/06/17 08:23:34;;;;;;;8.80;7.90;;;30.50;59.00;;;;;;5009720;28;20038;-70
2021/06/17 08:26:00;;;;;;;14.90;8.63;;;30.70;59.00;;;;;;5007731;28;20461;-71
2021/06/17 08:28:26;;;;;;;12.27;8.73;;;31.00;59.00;;;;;;5005702;28;20030;-70
2021/06/17 08:30:53;;;;;;;15.57;8.23;;;31.20;57.60;;;;;;5008864;28;20105;-70
2021/06/17 08:33:19;;;;;;;11.20;7.70;;;31.20;56.60;;;;;;5009588;28;20033;-70
2021/06/17 08:35:44;;;;;;;8.27;6.50;;;31.30;57.10;;;;;;5009851;28;20026;-70
2021/06/17 08:38:10;;;;;;;7.78;6.57;;;31.40;56.00;;;;;;5008030;28;20072;-70
2021/06/17 08:40:36;;;;;;;9.75;6.95;;;31.70;55.90;;;;;;5009793;28;20026;-71
2021/06/17 08:43:03;;;;;;;11.02;6.72;;;31.70;53.50;;;;;;5006578;28;20080;-71
2021/06/17 08:45:29;;;;;;;6.68;5.47;;;31.70;54.50;;;;;;5008991;28;20030;-70
2021/06/17 08:47:55;;;;;;;12.05;6.93;;;31.90;54.90;;;;;;5009754;28;20033;-71
2021/06/17 08:50:21;;;;;;;8.48;6.43;;;32.30;52.60;;;;;;5007258;28;20037;-71
2021/06/17 08:52:47;;;;;;;7.03;6.28;;;32.20;53.00;;;;;;5009938;28;20021;-71
2021/06/17 08:55:25;;;;;;;7.10;6.10;;;32.10;53.70;;;;;;5008562;28;20030;-71
2021/06/17 08:57:53;;;;;;;5.78;5.28;;;32.20;53.00;;;;;;5006117;28;20022;-71
2021/06/17 09:00:22;;;;;;;7.05;5.53;;;32.20;52.10;;;;;;5008136;28;20037;-71
2021/06/17 09:03:00;;;;;;;9.75;6.38;;;32.30;52.60;;;;;;5008947;28;20022;-71
2021/06/17 09:05:26;;;;;;;11.45;5.78;;;32.40;52.20;;;;;;5009172;28;20034;-70
2021/06/17 09:07:52;;;;;;;7.80;5.28;;;32.50;52.30;;;;;;5008673;28;20022;-71
2021/06/17 09:10:18;;;;;;;24.15;6.15;;;32.60;51.20;;;;;;5006617;28;20034;-70
2021/06/17 09:12:46;;;;;;;11.48;6.22;;;32.70;51.00;;;;;;5006954;28;20022;-71
2021/06/17 09:15:13;;;;;;;14.77;5.20;;;32.90;50.50;;;;;;5009048;28;20057;-71
2021/06/17 09:17:39;;;;;;;8.68;5.10;;;33.00;50.90;;;;;;5008031;28;20396;-71
2021/06/17 09:20:06;;;;;;;10.90;5.35;;;32.80;49.50;;;;;;5005724;28;20524;-70
2021/06/17 09:22:31;;;;;;;7.53;5.25;;;32.80;49.50;;;;;;5008658;28;20073;-70
2021/06/17 09:24:58;;;;;;;9.95;6.22;;;32.90;49.70;;;;;;5009058;28;20381;-71
2021/06/17 09:27:31;;;;;;;6.30;5.10;;;33.00;49.70;;;;;;5006218;28;20030;-71
2021/06/17 09:30:20;;;;;;;20.23;5.95;;;33.30;49.50;;;;;;5002422;28;20041;-71
2021/06/17 09:32:56;;;;;;;15.77;5.05;;;33.30;48.40;;;;;;5012965;28;20029;-70
2021/06/17 09:35:26;;;;;;;26.75;7.88;;;33.40;47.70;;;;;;5012546;28;20029;-71
2021/06/17 09:38:01;;;;;;;22.60;6.97;;;33.50;47.60;;;;;;5012666;28;20046;-71
2021/06/17 09:40:30;;;;;;;20.48;6.07;;;33.60;47.00;;;;;;5012143;28;20089;-71
2021/06/17 09:43:24;;;;;;;9.57;5.10;;;33.60;46.90;;;;;;5010872;28;20041;-71
2021/06/17 09:45:55;;;;;;;14.75;9.30;;;33.60;47.40;;;;;;5012659;28;20164;-71
2021/06/17 09:48:37;;;;;;;9.48;5.35;;;33.80;47.30;;;;;;5009412;28;20026;-71
2021/06/17 09:51:25;;;;;;;7.88;3.92;;;34.00;46.50;;;;;;5012236;28;20025;-71
2021/06/17 09:53:52;;;;;;;6.18;5.13;;;34.00;45.90;;;;;;5000766;28;20025;-71
2021/06/17 09:56:30;;;;;;;6.07;4.25;;;34.00;46.00;;;;;;5011115;28;20026;-71
2021/06/17 09:58:55;;;;;;;8.00;4.20;;;33.90;45.70;;;;;;5010831;28;20512;-71
2021/06/17 10:01:35;;;;;;;7.05;5.55;;;33.80;45.70;;;;;;5010967;28;20034;-71
2021/06/17 10:04:06;;;;;;;17.85;12.32;;;33.80;45.70;;;;;;5012057;28;20080;-71
2021/06/17 10:06:33;;;;;;;12.35;9.10;;;33.70;45.40;;;;;;5010838;28;20112;-71
2021/06/17 10:08:59;;;;;;;5.82;5.10;;;33.50;46.20;;;;;;5009910;28;20061;-71
2021/06/17 10:11:25;;;;;;;8.00;4.85;;;33.50;46.40;;;;;;5009352;28;20030;-71
2021/06/17 10:13:51;;;;;;;9.00;4.30;;;33.60;46.80;;;;;;5010947;28;20076;-71
2021/06/17 10:16:17;;;;;;;18.98;8.48;;;33.80;46.50;;;;;;5011598;28;20113;-71
2021/06/17 10:18:46;;;;;;;8.00;4.88;;;34.10;46.30;;;;;;5010023;28;20125;-71
2021/06/17 10:21:14;;;;;;;7.63;5.00;;;34.10;44.80;;;;;;5011839;28;20032;-71
2021/06/17 10:23:42;;;;;;;4.78;4.28;;;34.00;44.90;;;;;;5012008;28;20026;-71
2021/06/17 10:26:09;;;;;;;5.97;3.40;;;34.00;45.40;;;;;;5011375;28;20033;-71
2021/06/17 10:28:43;;;;;;;8.15;4.43;;;34.10;45.30;;;;;;5007868;28;20618;-71
2021/06/17 10:31:09;;;;;;;25.25;5.25;;;34.30;44.80;;;;;;5011066;28;20026;-71
2021/06/17 10:33:38;;;;;;;6.35;4.45;;;34.40;45.00;;;;;;5010109;28;20451;-71
2021/06/17 10:36:22;;;;;;;4.32;3.92;;;34.50;45.50;;;;;;5011528;28;20025;-71
2021/06/17 10:39:12;;;;;;;7.78;7.07;;;34.30;45.60;;;;;;5009711;28;20053;-71
2021/06/17 10:41:46;;;;;;;4.88;4.38;;;34.30;45.30;;;;;;5002130;28;20393;-71
2021/06/17 10:44:46;;;;;;;6.18;4.68;;;34.00;45.70;;;;;;5009583;28;20108;-71
2021/06/17 10:47:51;;;;;;;6.45;4.57;;;33.90;45.10;;;;;;5010982;28;20072;-71
2021/06/17 10:50:25;;;;;;;5.63;5.10;;;33.80;45.50;;;;;;5009581;28;20440;-71
2021/06/17 10:53:13;;;;;;;6.68;4.50;;;33.80;45.50;;;;;;5011394;28;20018;-71
2021/06/17 10:55:57;;;;;;;4.88;3.85;;;34.20;44.10;;;;;;5011174;28;20393;-71
2021/06/17 10:58:41;;;;;;;5.28;3.75;;;34.10;44.40;;;;;;5008526;28;20497;-71
2021/06/17 11:01:33;;;;;;;9.80;4.85;;;34.30;43.30;;;;;;5011181;28;20496;-71
2021/06/17 11:04:10;;;;;;;6.30;3.97;;;34.20;42.90;;;;;;5010074;28;20381;-71
2021/06/17 11:06:48;;;;;;;5.82;5.05;;;34.20;44.20;;;;;;5009646;28;20113;-71
2021/06/17 11:09:32;;;;;;;3.35;3.15;;;34.40;43.50;;;;;;5010205;28;20037;-71
2021/06/17 11:11:58;;;;;;;5.53;3.15;;;34.50;42.60;;;;;;5010786;28;20511;-71
2021/06/17 11:14:23;;;;;;;3.33;2.60;;;34.50;41.70;;;;;;5010875;28;20053;-71
2021/06/17 11:16:54;;;;;;;3.53;2.92;;;34.40;41.10;;;;;;5008366;28;20381;-71
2021/06/17 11:19:19;;;;;;;9.68;8.02;;;34.50;41.40;;;;;;5009864;28;20057;-71
2021/06/17 11:21:46;;;;;;;5.72;4.63;;;34.30;40.50;;;;;;5010902;28;20057;-71
2021/06/17 11:24:13;;;;;;;3.00;2.55;;;34.00;41.10;;;;;;5009195;28;20030;-71
2021/06/17 11:26:44;;;;;;;3.42;2.58;;;34.00;40.70;;;;;;5009664;28;20113;-71
2021/06/17 11:29:21;;;;;;;6.85;6.00;;;34.00;41.60;;;;;;5009849;28;20026;-71
2021/06/17 11:31:51;;;;;;;4.43;2.92;;;34.20;40.20;;;;;;5010584;28;20118;-72
2021/06/17 11:34:29;;;;;;;2.65;2.22;;;34.30;41.60;;;;;;5007694;28;20025;-71
2021/06/17 11:36:57;;;;;;;3.92;3.35;;;34.70;40.60;;;;;;5009955;28;20026;-71
2021/06/17 11:39:28;;;;;;;1.83;1.67;;;34.60;39.30;;;;;;5008257;28;20033;-72
2021/06/17 11:41:57;;;;;;;6.90;6.25;;;34.90;39.70;;;;;;5009137;28;20384;-71
2021/06/17 11:44:25;;;;;;;3.78;2.40;;;35.00;36.80;;;;;;5010403;28;20042;-71
2021/06/17 11:47:08;;;;;;;3.35;2.17;;;35.00;38.00;;;;;;5010415;28;20080;-71
2021/06/17 11:49:43;;;;;;;4.85;1.55;;;35.10;37.90;;;;;;5009286;28;20156;-70
2021/06/17 11:52:10;;;;;;;;;;;35.10;36.70;;;;;;5007893;28;20479;-71
2021/06/17 11:54:37;;;;;;;5.05;1.77;;;35.00;38.20;;;;;;5008942;28;20285;-72
2021/06/17 11:57:03;;;;;;;5.93;1.92;;;35.20;36.90;;;;;;5010122;28;20029;-72
2021/06/17 11:59:31;;;;;;;9.60;2.63;;;35.30;37.70;;;;;;5007037;28;20030;-71
2021/06/17 12:02:25;;;;;;;3.95;2.33;;;35.20;36.60;;;;;;5008757;28;20428;-71
2021/06/17 12:05:02;;;;;;;9.02;1.65;;;35.10;37.10;;;;;;5010277;28;20026;-71
2021/06/17 12:07:45;;;;;;;3.00;1.77;;;35.10;36.10;;;;;;5009399;28;20136;-72
2021/06/17 12:10:10;;;;;;;5.82;2.08;;;35.30;36.20;;;;;;5005445;28;20076;-72
2021/06/17 12:12:38;;;;;;;6.05;1.75;;;35.20;36.50;;;;;;5009819;28;20029;-72
2021/06/17 12:15:05;;;;;;;2.13;1.80;;;35.40;37.40;;;;;;5009950;28;20029;-72
2021/06/17 12:17:35;;;;;;;8.13;2.55;;;35.50;36.90;;;;;;5008534;28;20653;-71
2021/06/17 12:20:23;;;;;;;3.83;1.92;;;35.50;36.00;;;;;;5082903;23;20053;-72
2021/06/17 12:23:11;;;;;;;12.85;3.22;;;35.20;36.10;;;;;;5019895;28;20094;-72
2021/06/17 12:25:43;;;;;;;5.57;2.10;;;35.20;37.10;;;;;;5027217;28;20033;-72
2021/06/17 12:28:10;;;;;;;4.63;2.63;;;35.10;36.60;;;;;;5026705;28;20407;-72
2021/06/17 12:30:47;;;;;;;5.75;2.85;;;35.00;36.40;;;;;;5025614;28;20068;-72
2021/06/17 12:33:20;;;;;;;7.00;2.30;;;34.90;36.90;;;;;;5029547;28;20025;-72
2021/06/17 12:35:54;;;;;;;12.13;2.15;;;35.00;37.00;;;;;;5029213;28;20025;-73
2021/06/17 12:38:30;;;;;;;5.07;1.67;;;35.00;36.90;;;;;;5027811;28;20056;-72
2021/06/17 12:41:17;;;;;;;5.25;2.47;;;34.90;36.50;;;;;;5025484;28;20061;-72
2021/06/17 12:43:47;;;;;;;12.27;3.60;;;34.80;36.50;;;;;;5043246;28;20031;-72
2021/06/17 12:46:14;;;;;;;7.22;2.70;;;34.80;35.70;;;;;;5028579;28;20037;-72
2021/06/17 12:54:07;;;;;;;4.38;2.00;;;34.80;36.70;;;;;;5028778;28;20060;-73
2021/06/17 12:56:33;;;;;;;9.50;2.38;;;34.80;36.10;;;;;;5028795;28;20056;-72